sensor_id;sensor_type;location;lat;lon;timestamp;P1;durP1;ratioP1;P2;durP2;ratioP2
39050;SDS011;24805;55.852;37.644;2023-04-16T00:00:26;10.48;;;4.75;;
39050;SDS011;24805;55.852;37.644;2023-04-16T00:05:29;10.57;;;4.80;;
39050;SDS011;24805;55.852;37.644;2023-04-16T00:10:31;11.25;;;5.32;;
39050;SDS011;24805;55.852;37.644;2023-04-16T00:15:33;11.85;;;4.88;;
39050;SDS011;24805;55.852;37.644;2023-04-16T00:20:35;10.65;;;4.47;;
39050;SDS011;24805;55.852;37.644;2023-04-16T00:30:39;12.50;;;5.45;;
39050;SDS011;24805;55.852;37.644;2023-04-16T00:35:44;16.23;;;7.93;;
39050;SDS011;24805;55.852;37.644;2023-04-16T00:40:47;11.10;;;6.78;;
39050;SDS011;24805;55.852;37.644;2023-04-16T00:45:49;10.82;;;3.92;;
39050;SDS011;24805;55.852;37.644;2023-04-16T00:50:53;9.98;;;4.70;;
39050;SDS011;24805;55.852;37.644;2023-04-16T00:55:56;10.30;;;4.63;;
39050;SDS011;24805;55.852;37.644;2023-04-16T01:00:58;12.70;;;4.95;;
39050;SDS011;24805;55.852;37.644;2023-04-16T01:06:01;10.98;;;5.20;;
39050;SDS011;24805;55.852;37.644;2023-04-16T01:11:04;7.32;;;4.57;;
39050;SDS011;24805;55.852;37.644;2023-04-16T01:16:07;12.38;;;5.00;;
39050;SDS011;24805;55.852;37.644;2023-04-16T01:21:11;9.30;;;4.88;;
39050;SDS011;24805;55.852;37.644;2023-04-16T01:26:13;8.68;;;4.95;;
39050;SDS011;24805;55.852;37.644;2023-04-16T01:31:16;13.85;;;6.80;;
39050;SDS011;24805;55.852;37.644;2023-04-16T01:36:33;12.95;;;5.43;;
39050;SDS011;24805;55.852;37.644;2023-04-16T01:41:36;13.07;;;5.50;;
39050;SDS011;24805;55.852;37.644;2023-04-16T01:46:38;8.00;;;4.45;;
39050;SDS011;24805;55.852;37.644;2023-04-16T01:51:40;9.50;;;5.13;;
39050;SDS011;24805;55.852;37.644;2023-04-16T01:56:44;11.73;;;5.25;;
39050;SDS011;24805;55.852;37.644;2023-04-16T02:01:46;9.98;;;4.70;;
39050;SDS011;24805;55.852;37.644;2023-04-16T02:06:48;9.50;;;4.80;;
39050;SDS011;24805;55.852;37.644;2023-04-16T02:11:50;7.85;;;4.55;;
39050;SDS011;24805;55.852;37.644;2023-04-16T02:16:52;9.45;;;4.78;;
39050;SDS011;24805;55.852;37.644;2023-04-16T02:22:09;10.30;;;4.57;;
39050;SDS011;24805;55.852;37.644;2023-04-16T02:27:11;8.63;;;4.85;;
39050;SDS011;24805;55.852;37.644;2023-04-16T02:32:16;9.55;;;5.60;;
39050;SDS011;24805;55.852;37.644;2023-04-16T02:37:20;14.15;;;5.15;;
39050;SDS011;24805;55.852;37.644;2023-04-16T02:42:23;10.50;;;5.45;;
39050;SDS011;24805;55.852;37.644;2023-04-16T02:47:25;13.15;;;5.55;;
39050;SDS011;24805;55.852;37.644;2023-04-16T02:52:28;12.55;;;4.75;;
39050;SDS011;24805;55.852;37.644;2023-04-16T02:57:30;15.45;;;5.85;;
39050;SDS011;24805;55.852;37.644;2023-04-16T03:02:32;12.80;;;5.68;;
39050;SDS011;24805;55.852;37.644;2023-04-16T03:07:34;11.18;;;4.78;;
39050;SDS011;24805;55.852;37.644;2023-04-16T03:12:36;13.90;;;4.75;;
39050;SDS011;24805;55.852;37.644;2023-04-16T03:17:40;12.75;;;4.85;;
39050;SDS011;24805;55.852;37.644;2023-04-16T03:22:43;15.18;;;5.65;;
39050;SDS011;24805;55.852;37.644;2023-04-16T03:27:46;14.75;;;5.05;;
39050;SDS011;24805;55.852;37.644;2023-04-16T03:32:50;6.93;;;3.67;;
39050;SDS011;24805;55.852;37.644;2023-04-16T03:37:52;14.00;;;4.70;;
39050;SDS011;24805;55.852;37.644;2023-04-16T03:42:55;11.85;;;4.45;;
39050;SDS011;24805;55.852;37.644;2023-04-16T03:47:57;11.88;;;4.35;;
39050;SDS011;24805;55.852;37.644;2023-04-16T03:53:00;11.65;;;4.50;;
39050;SDS011;24805;55.852;37.644;2023-04-16T03:58:02;9.25;;;4.85;;
39050;SDS011;24805;55.852;37.644;2023-04-16T04:03:06;13.85;;;4.35;;
39050;SDS011;24805;55.852;37.644;2023-04-16T04:08:09;8.32;;;3.88;;
39050;SDS011;24805;55.852;37.644;2023-04-16T04:13:12;8.88;;;3.38;;
39050;SDS011;24805;55.852;37.644;2023-04-16T04:18:14;7.80;;;3.90;;
39050;SDS011;24805;55.852;37.644;2023-04-16T04:23:17;9.25;;;4.18;;
39050;SDS011;24805;55.852;37.644;2023-04-16T04:28:20;12.88;;;4.20;;
39050;SDS011;24805;55.852;37.644;2023-04-16T04:33:23;8.43;;;3.70;;
39050;SDS011;24805;55.852;37.644;2023-04-16T04:38:26;10.32;;;3.75;;
39050;SDS011;24805;55.852;37.644;2023-04-16T04:43:28;9.02;;;3.67;;
39050;SDS011;24805;55.852;37.644;2023-04-16T04:48:30;9.65;;;4.05;;
39050;SDS011;24805;55.852;37.644;2023-04-16T04:53:33;8.98;;;4.03;;
39050;SDS011;24805;55.852;37.644;2023-04-16T04:58:35;10.70;;;4.03;;
39050;SDS011;24805;55.852;37.644;2023-04-16T05:03:38;10.65;;;4.50;;
39050;SDS011;24805;55.852;37.644;2023-04-16T05:08:40;8.60;;;4.15;;
39050;SDS011;24805;55.852;37.644;2023-04-16T05:18:44;7.00;;;3.20;;
39050;SDS011;24805;55.852;37.644;2023-04-16T05:23:46;6.38;;;3.75;;
39050;SDS011;24805;55.852;37.644;2023-04-16T05:28:49;7.43;;;3.33;;
39050;SDS011;24805;55.852;37.644;2023-04-16T05:33:51;10.88;;;3.60;;
39050;SDS011;24805;55.852;37.644;2023-04-16T05:38:53;8.82;;;3.47;;
39050;SDS011;24805;55.852;37.644;2023-04-16T05:48:57;9.25;;;3.75;;
39050;SDS011;24805;55.852;37.644;2023-04-16T05:54:00;9.65;;;3.80;;
39050;SDS011;24805;55.852;37.644;2023-04-16T06:04:04;6.50;;;3.13;;
39050;SDS011;24805;55.852;37.644;2023-04-16T06:09:07;7.75;;;3.30;;
39050;SDS011;24805;55.852;37.644;2023-04-16T06:14:09;9.88;;;3.40;;
39050;SDS011;24805;55.852;37.644;2023-04-16T06:19:11;10.05;;;3.58;;
39050;SDS011;24805;55.852;37.644;2023-04-16T06:24:13;8.30;;;3.90;;
39050;SDS011;24805;55.852;37.644;2023-04-16T06:29:16;10.20;;;4.18;;
39050;SDS011;24805;55.852;37.644;2023-04-16T06:34:18;8.43;;;3.00;;
39050;SDS011;24805;55.852;37.644;2023-04-16T06:39:20;7.32;;;2.83;;
39050;SDS011;24805;55.852;37.644;2023-04-16T06:44:22;6.32;;;2.92;;
39050;SDS011;24805;55.852;37.644;2023-04-16T06:49:24;6.32;;;2.97;;
39050;SDS011;24805;55.852;37.644;2023-04-16T06:54:27;4.53;;;2.55;;
39050;SDS011;24805;55.852;37.644;2023-04-16T06:59:29;6.57;;;3.00;;
39050;SDS011;24805;55.852;37.644;2023-04-16T07:04:31;8.43;;;3.20;;
39050;SDS011;24805;55.852;37.644;2023-04-16T07:09:33;7.28;;;3.15;;
39050;SDS011;24805;55.852;37.644;2023-04-16T07:14:36;6.20;;;2.85;;
39050;SDS011;24805;55.852;37.644;2023-04-16T07:19:38;7.35;;;2.65;;
39050;SDS011;24805;55.852;37.644;2023-04-16T07:24:40;9.05;;;3.10;;
39050;SDS011;24805;55.852;37.644;2023-04-16T07:29:42;6.97;;;3.00;;
39050;SDS011;24805;55.852;37.644;2023-04-16T07:34:46;7.53;;;2.70;;
39050;SDS011;24805;55.852;37.644;2023-04-16T07:39:48;17.83;;;3.17;;
39050;SDS011;24805;55.852;37.644;2023-04-16T07:44:50;8.23;;;3.05;;
39050;SDS011;24805;55.852;37.644;2023-04-16T07:49:52;7.22;;;3.05;;
39050;SDS011;24805;55.852;37.644;2023-04-16T07:54:55;10.30;;;3.40;;
39050;SDS011;24805;55.852;37.644;2023-04-16T07:59:57;6.63;;;2.67;;
39050;SDS011;24805;55.852;37.644;2023-04-16T08:04:59;7.20;;;3.72;;
39050;SDS011;24805;55.852;37.644;2023-04-16T08:10:01;7.32;;;3.22;;
39050;SDS011;24805;55.852;37.644;2023-04-16T08:15:06;6.22;;;2.75;;
39050;SDS011;24805;55.852;37.644;2023-04-16T08:20:09;7.57;;;2.95;;
39050;SDS011;24805;55.852;37.644;2023-04-16T08:25:15;9.10;;;3.10;;
39050;SDS011;24805;55.852;37.644;2023-04-16T08:30:17;5.68;;;2.72;;
39050;SDS011;24805;55.852;37.644;2023-04-16T08:35:20;9.77;;;3.22;;
39050;SDS011;24805;55.852;37.644;2023-04-16T08:40:23;8.07;;;2.75;;
39050;SDS011;24805;55.852;37.644;2023-04-16T08:45:29;5.63;;;2.92;;
39050;SDS011;24805;55.852;37.644;2023-04-16T08:50:35;7.60;;;2.55;;
39050;SDS011;24805;55.852;37.644;2023-04-16T08:55:38;6.20;;;2.58;;
39050;SDS011;24805;55.852;37.644;2023-04-16T09:00:44;8.82;;;2.95;;
39050;SDS011;24805;55.852;37.644;2023-04-16T09:05:47;3.72;;;2.10;;
39050;SDS011;24805;55.852;37.644;2023-04-16T09:10:50;5.40;;;2.45;;
39050;SDS011;24805;55.852;37.644;2023-04-16T09:15:52;5.82;;;2.25;;
39050;SDS011;24805;55.852;37.644;2023-04-16T09:20:55;6.97;;;2.72;;
39050;SDS011;24805;55.852;37.644;2023-04-16T09:25:58;7.45;;;2.60;;
39050;SDS011;24805;55.852;37.644;2023-04-16T09:31:07;4.85;;;1.63;;
39050;SDS011;24805;55.852;37.644;2023-04-16T09:36:10;4.43;;;1.88;;
39050;SDS011;24805;55.852;37.644;2023-04-16T09:41:12;5.88;;;2.70;;
39050;SDS011;24805;55.852;37.644;2023-04-16T09:46:16;6.07;;;2.30;;
39050;SDS011;24805;55.852;37.644;2023-04-16T09:51:19;6.78;;;2.33;;
39050;SDS011;24805;55.852;37.644;2023-04-16T09:56:24;4.07;;;2.70;;
39050;SDS011;24805;55.852;37.644;2023-04-16T10:01:31;5.50;;;2.58;;
39050;SDS011;24805;55.852;37.644;2023-04-16T10:06:33;5.45;;;2.47;;
39050;SDS011;24805;55.852;37.644;2023-04-16T10:11:35;7.95;;;3.00;;
39050;SDS011;24805;55.852;37.644;2023-04-16T10:16:38;10.57;;;4.18;;
39050;SDS011;24805;55.852;37.644;2023-04-16T10:21:41;5.15;;;3.40;;
39050;SDS011;24805;55.852;37.644;2023-04-16T10:26:44;9.15;;;3.10;;
39050;SDS011;24805;55.852;37.644;2023-04-16T10:31:48;8.23;;;3.53;;
39050;SDS011;24805;55.852;37.644;2023-04-16T10:36:51;8.95;;;2.83;;
39050;SDS011;24805;55.852;37.644;2023-04-16T10:42:11;8.65;;;3.13;;
39050;SDS011;24805;55.852;37.644;2023-04-16T10:47:13;7.57;;;2.90;;
39050;SDS011;24805;55.852;37.644;2023-04-16T10:52:16;6.43;;;2.65;;
39050;SDS011;24805;55.852;37.644;2023-04-16T10:57:18;6.30;;;3.13;;
39050;SDS011;24805;55.852;37.644;2023-04-16T11:02:22;4.35;;;3.17;;
39050;SDS011;24805;55.852;37.644;2023-04-16T11:07:33;6.90;;;2.63;;
39050;SDS011;24805;55.852;37.644;2023-04-16T11:12:36;6.65;;;2.88;;
39050;SDS011;24805;55.852;37.644;2023-04-16T11:17:42;6.53;;;2.92;;
39050;SDS011;24805;55.852;37.644;2023-04-16T11:22:49;5.72;;;2.83;;
39050;SDS011;24805;55.852;37.644;2023-04-16T11:27:52;5.50;;;2.70;;
39050;SDS011;24805;55.852;37.644;2023-04-16T11:32:55;5.55;;;3.38;;
39050;SDS011;24805;55.852;37.644;2023-04-16T11:37:58;6.22;;;3.20;;
39050;SDS011;24805;55.852;37.644;2023-04-16T11:43:00;4.32;;;2.80;;
39050;SDS011;24805;55.852;37.644;2023-04-16T11:48:04;7.10;;;2.83;;
39050;SDS011;24805;55.852;37.644;2023-04-16T11:53:08;7.38;;;3.42;;
39050;SDS011;24805;55.852;37.644;2023-04-16T11:58:14;6.75;;;3.28;;
39050;SDS011;24805;55.852;37.644;2023-04-16T12:03:18;6.72;;;2.80;;
39050;SDS011;24805;55.852;37.644;2023-04-16T12:08:38;6.37;;;2.90;;
39050;SDS011;24805;55.852;37.644;2023-04-16T12:13:40;6.15;;;3.38;;
39050;SDS011;24805;55.852;37.644;2023-04-16T12:18:57;11.00;;;4.43;;
39050;SDS011;24805;55.852;37.644;2023-04-16T12:24:02;6.35;;;3.70;;
39050;SDS011;24805;55.852;37.644;2023-04-16T12:34:26;6.88;;;3.70;;
39050;SDS011;24805;55.852;37.644;2023-04-16T12:39:48;5.93;;;3.47;;
39050;SDS011;24805;55.852;37.644;2023-04-16T12:44:50;7.43;;;3.60;;
39050;SDS011;24805;55.852;37.644;2023-04-16T12:49:52;8.43;;;3.08;;
39050;SDS011;24805;55.852;37.644;2023-04-16T12:54:54;6.05;;;2.88;;
39050;SDS011;24805;55.852;37.644;2023-04-16T12:59:57;7.35;;;3.05;;
39050;SDS011;24805;55.852;37.644;2023-04-16T13:04:59;8.40;;;2.72;;
39050;SDS011;24805;55.852;37.644;2023-04-16T13:10:04;7.78;;;2.65;;
39050;SDS011;24805;55.852;37.644;2023-04-16T13:15:07;6.03;;;3.55;;
39050;SDS011;24805;55.852;37.644;2023-04-16T13:20:10;5.75;;;2.80;;
39050;SDS011;24805;55.852;37.644;2023-04-16T13:25:12;4.13;;;2.85;;
39050;SDS011;24805;55.852;37.644;2023-04-16T13:30:14;8.02;;;2.70;;
39050;SDS011;24805;55.852;37.644;2023-04-16T13:35:17;5.03;;;2.95;;
39050;SDS011;24805;55.852;37.644;2023-04-16T13:40:19;7.28;;;3.47;;
39050;SDS011;24805;55.852;37.644;2023-04-16T13:45:21;12.27;;;3.53;;
39050;SDS011;24805;55.852;37.644;2023-04-16T13:50:23;6.88;;;3.20;;
39050;SDS011;24805;55.852;37.644;2023-04-16T13:55:26;8.30;;;3.60;;
39050;SDS011;24805;55.852;37.644;2023-04-16T14:00:28;8.13;;;3.17;;
39050;SDS011;24805;55.852;37.644;2023-04-16T14:05:30;7.38;;;3.17;;
39050;SDS011;24805;55.852;37.644;2023-04-16T14:10:32;8.55;;;2.85;;
39050;SDS011;24805;55.852;37.644;2023-04-16T14:15:35;6.88;;;2.80;;
39050;SDS011;24805;55.852;37.644;2023-04-16T14:20:38;6.82;;;3.10;;
39050;SDS011;24805;55.852;37.644;2023-04-16T14:25:40;8.20;;;3.00;;
39050;SDS011;24805;55.852;37.644;2023-04-16T14:30:42;4.25;;;3.20;;
39050;SDS011;24805;55.852;37.644;2023-04-16T14:35:45;6.10;;;3.08;;
39050;SDS011;24805;55.852;37.644;2023-04-16T14:40:47;8.15;;;3.25;;
39050;SDS011;24805;55.852;37.644;2023-04-16T14:45:49;6.93;;;2.88;;
39050;SDS011;24805;55.852;37.644;2023-04-16T14:50:52;5.72;;;2.15;;
39050;SDS011;24805;55.852;37.644;2023-04-16T14:55:54;8.68;;;3.20;;
39050;SDS011;24805;55.852;37.644;2023-04-16T15:00:59;7.47;;;2.67;;
39050;SDS011;24805;55.852;37.644;2023-04-16T15:06:01;8.68;;;3.03;;
39050;SDS011;24805;55.852;37.644;2023-04-16T15:11:04;7.07;;;2.53;;
39050;SDS011;24805;55.852;37.644;2023-04-16T15:16:06;19.25;;;3.13;;
39050;SDS011;24805;55.852;37.644;2023-04-16T15:21:08;9.35;;;2.67;;
39050;SDS011;24805;55.852;37.644;2023-04-16T15:26:13;8.35;;;2.63;;
39050;SDS011;24805;55.852;37.644;2023-04-16T15:31:15;8.63;;;2.83;;
39050;SDS011;24805;55.852;37.644;2023-04-16T15:36:17;6.18;;;2.42;;
39050;SDS011;24805;55.852;37.644;2023-04-16T15:41:20;8.00;;;2.90;;
39050;SDS011;24805;55.852;37.644;2023-04-16T15:46:23;5.00;;;2.63;;
39050;SDS011;24805;55.852;37.644;2023-04-16T15:51:25;11.18;;;3.25;;
39050;SDS011;24805;55.852;37.644;2023-04-16T15:56:30;5.53;;;2.85;;
39050;SDS011;24805;55.852;37.644;2023-04-16T16:01:32;9.18;;;3.00;;
39050;SDS011;24805;55.852;37.644;2023-04-16T16:06:39;5.18;;;2.40;;
39050;SDS011;24805;55.852;37.644;2023-04-16T16:11:42;5.82;;;2.70;;
39050;SDS011;24805;55.852;37.644;2023-04-16T16:16:44;5.30;;;2.08;;
39050;SDS011;24805;55.852;37.644;2023-04-16T16:21:46;6.20;;;2.63;;
39050;SDS011;24805;55.852;37.644;2023-04-16T16:26:49;9.30;;;2.58;;
39050;SDS011;24805;55.852;37.644;2023-04-16T16:31:51;4.25;;;2.40;;
39050;SDS011;24805;55.852;37.644;2023-04-16T16:36:53;7.53;;;2.30;;
39050;SDS011;24805;55.852;37.644;2023-04-16T16:41:55;6.30;;;2.47;;
39050;SDS011;24805;55.852;37.644;2023-04-16T16:46:58;8.20;;;2.78;;
39050;SDS011;24805;55.852;37.644;2023-04-16T16:52:00;5.35;;;2.70;;
39050;SDS011;24805;55.852;37.644;2023-04-16T16:57:02;8.57;;;3.13;;
39050;SDS011;24805;55.852;37.644;2023-04-16T17:07:07;8.40;;;4.38;;
39050;SDS011;24805;55.852;37.644;2023-04-16T17:12:09;11.50;;;4.38;;
39050;SDS011;24805;55.852;37.644;2023-04-16T17:17:11;8.00;;;4.45;;
39050;SDS011;24805;55.852;37.644;2023-04-16T17:27:16;13.02;;;5.22;;
39050;SDS011;24805;55.852;37.644;2023-04-16T17:32:18;9.55;;;4.97;;
39050;SDS011;24805;55.852;37.644;2023-04-16T17:37:21;10.35;;;4.75;;
39050;SDS011;24805;55.852;37.644;2023-04-16T17:42:24;19.63;;;5.55;;
39050;SDS011;24805;55.852;37.644;2023-04-16T17:47:26;15.02;;;4.85;;
39050;SDS011;24805;55.852;37.644;2023-04-16T17:52:28;13.57;;;5.18;;
39050;SDS011;24805;55.852;37.644;2023-04-16T17:57:31;11.50;;;5.03;;
39050;SDS011;24805;55.852;37.644;2023-04-16T18:02:33;20.05;;;6.35;;
39050;SDS011;24805;55.852;37.644;2023-04-16T18:07:35;14.70;;;5.68;;
39050;SDS011;24805;55.852;37.644;2023-04-16T18:12:39;14.32;;;5.65;;
39050;SDS011;24805;55.852;37.644;2023-04-16T18:17:41;12.18;;;5.25;;
39050;SDS011;24805;55.852;37.644;2023-04-16T18:22:44;14.70;;;5.63;;
39050;SDS011;24805;55.852;37.644;2023-04-16T18:27:46;11.63;;;5.75;;
39050;SDS011;24805;55.852;37.644;2023-04-16T18:38:10;8.20;;;4.93;;
39050;SDS011;24805;55.852;37.644;2023-04-16T18:43:14;10.27;;;6.05;;
39050;SDS011;24805;55.852;37.644;2023-04-16T18:48:16;15.30;;;6.07;;
39050;SDS011;24805;55.852;37.644;2023-04-16T18:58:21;14.48;;;6.53;;
39050;SDS011;24805;55.852;37.644;2023-04-16T19:08:27;14.43;;;6.45;;
39050;SDS011;24805;55.852;37.644;2023-04-16T19:18:32;15.05;;;6.97;;
39050;SDS011;24805;55.852;37.644;2023-04-16T19:28:37;16.35;;;6.75;;
39050;SDS011;24805;55.852;37.644;2023-04-16T19:33:39;16.63;;;7.00;;
39050;SDS011;24805;55.852;37.644;2023-04-16T19:38:42;16.45;;;7.60;;
39050;SDS011;24805;55.852;37.644;2023-04-16T19:43:44;14.20;;;7.05;;
39050;SDS011;24805;55.852;37.644;2023-04-16T19:48:46;12.90;;;7.25;;
39050;SDS011;24805;55.852;37.644;2023-04-16T19:53:49;18.00;;;7.40;;
39050;SDS011;24805;55.852;37.644;2023-04-16T19:58:51;16.13;;;7.47;;
39050;SDS011;24805;55.852;37.644;2023-04-16T20:08:55;13.70;;;7.72;;
39050;SDS011;24805;55.852;37.644;2023-04-16T20:13:58;17.27;;;8.05;;
39050;SDS011;24805;55.852;37.644;2023-04-16T20:19:01;18.42;;;7.95;;
39050;SDS011;24805;55.852;37.644;2023-04-16T20:24:09;14.30;;;8.02;;
39050;SDS011;24805;55.852;37.644;2023-04-16T20:29:11;16.60;;;7.65;;
39050;SDS011;24805;55.852;37.644;2023-04-16T20:34:14;15.02;;;7.03;;
39050;SDS011;24805;55.852;37.644;2023-04-16T20:39:16;14.95;;;7.18;;
39050;SDS011;24805;55.852;37.644;2023-04-16T20:44:23;19.13;;;8.35;;
39050;SDS011;24805;55.852;37.644;2023-04-16T20:49:34;20.25;;;7.97;;
39050;SDS011;24805;55.852;37.644;2023-04-16T20:54:36;16.65;;;7.68;;
39050;SDS011;24805;55.852;37.644;2023-04-16T20:59:38;18.45;;;6.97;;
39050;SDS011;24805;55.852;37.644;2023-04-16T21:04:40;20.60;;;7.47;;
39050;SDS011;24805;55.852;37.644;2023-04-16T21:09:43;15.10;;;7.47;;
39050;SDS011;24805;55.852;37.644;2023-04-16T21:19:47;18.73;;;7.07;;
39050;SDS011;24805;55.852;37.644;2023-04-16T21:24:49;13.70;;;6.30;;
39050;SDS011;24805;55.852;37.644;2023-04-16T21:34:54;17.75;;;7.13;;
39050;SDS011;24805;55.852;37.644;2023-04-16T21:39:56;12.63;;;6.75;;
39050;SDS011;24805;55.852;37.644;2023-04-16T21:50:00;17.67;;;6.93;;
39050;SDS011;24805;55.852;37.644;2023-04-16T21:55:05;12.80;;;6.38;;
39050;SDS011;24805;55.852;37.644;2023-04-16T22:00:09;14.55;;;7.25;;
39050;SDS011;24805;55.852;37.644;2023-04-16T22:05:14;14.88;;;7.32;;
39050;SDS011;24805;55.852;37.644;2023-04-16T22:10:17;18.30;;;7.13;;
39050;SDS011;24805;55.852;37.644;2023-04-16T22:15:20;15.57;;;6.25;;
39050;SDS011;24805;55.852;37.644;2023-04-16T22:20:23;18.63;;;6.55;;
39050;SDS011;24805;55.852;37.644;2023-04-16T22:30:27;14.45;;;6.50;;
39050;SDS011;24805;55.852;37.644;2023-04-16T22:35:29;12.70;;;6.50;;
39050;SDS011;24805;55.852;37.644;2023-04-16T22:40:32;14.70;;;6.50;;
39050;SDS011;24805;55.852;37.644;2023-04-16T22:45:34;17.33;;;6.45;;
39050;SDS011;24805;55.852;37.644;2023-04-16T22:50:38;14.45;;;6.47;;
39050;SDS011;24805;55.852;37.644;2023-04-16T22:55:41;15.35;;;6.40;;
39050;SDS011;24805;55.852;37.644;2023-04-16T23:05:45;15.90;;;6.43;;
39050;SDS011;24805;55.852;37.644;2023-04-16T23:10:47;16.42;;;6.68;;
39050;SDS011;24805;55.852;37.644;2023-04-16T23:15:49;17.00;;;6.75;;
39050;SDS011;24805;55.852;37.644;2023-04-16T23:20:52;15.48;;;6.32;;
39050;SDS011;24805;55.852;37.644;2023-04-16T23:25:54;12.32;;;5.63;;
39050;SDS011;24805;55.852;37.644;2023-04-16T23:30:56;12.13;;;6.63;;
39050;SDS011;24805;55.852;37.644;2023-04-16T23:41:01;13.10;;;5.72;;
39050;SDS011;24805;55.852;37.644;2023-04-16T23:51:05;9.52;;;5.63;;
